createdAt,value
2022-09-01T00:00:48.147Z,94763.18
2022-09-01T00:03:14.530Z,94761.89
2022-09-01T00:05:40.997Z,94755.89
2022-09-01T00:08:07.374Z,94753.66
2022-09-01T00:10:33.856Z,94752.02
2022-09-01T00:13:00.288Z,94747.66
2022-09-01T00:15:26.695Z,94747.32
2022-09-01T00:17:53.073Z,94748.48
2022-09-01T00:20:20.687Z,94756.24
2022-09-01T00:22:45.859Z,94754.60
2022-09-01T00:25:12.250Z,94753.78
2022-09-01T00:27:38.621Z,94756.24
2022-09-01T00:30:05.118Z,94748.61
2022-09-01T00:32:31.654Z,94746.84
2022-09-01T00:34:58.039Z,94740.50
2022-09-01T00:37:24.432Z,94740.86
2022-09-01T00:39:50.818Z,94740.03
2022-09-01T00:42:17.208Z,94731.45
2022-09-01T00:44:43.585Z,94738.39
2022-09-01T00:47:10.089Z,94744.38
2022-09-01T00:49:36.434Z,94745.68
2022-09-01T00:52:02.819Z,94746.15
2022-09-01T00:54:29.217Z,94755.89
2022-09-01T00:56:57.317Z,94766.23
2022-09-01T00:59:21.986Z,94765.55
2022-09-01T01:01:48.406Z,94767.66
2022-09-01T01:04:14.742Z,94768.12
2022-09-01T01:06:41.132Z,94771.22
2022-09-01T01:09:07.517Z,94769.42
2022-09-01T01:11:33.974Z,94772.83
2022-09-01T01:14:00.347Z,94775.88
2022-09-01T01:16:26.775Z,94778.47
2022-09-01T01:18:53.121Z,94778.34
2022-09-01T01:21:19.507Z,94774.12
2022-09-01T01:23:45.900Z,94772.83
2022-09-01T01:26:12.287Z,94768.12
2022-09-01T01:28:38.728Z,94769.58
2022-09-01T01:31:05.164Z,94775.56
2022-09-01T01:33:31.493Z,94779.44
2022-09-01T01:35:57.873Z,94775.56
2022-09-01T01:38:24.248Z,94778.15
2022-09-01T01:40:50.761Z,94785.09
2022-09-01T01:43:17.070Z,94777.92
2022-09-01T01:45:43.553Z,94780.86
2022-09-01T01:48:09.880Z,94788.96
2022-09-01T01:50:36.268Z,94785.91
2022-09-01T01:53:02.650Z,94790.26
2022-09-01T01:55:29.154Z,94786.03
2022-09-01T01:57:55.409Z,94791.55
2022-09-01T02:00:30.118Z,94788.77
2022-09-01T02:02:48.218Z,94790.53
2022-09-01T02:05:14.590Z,94796.84
2022-09-01T02:07:40.974Z,94796.38
2022-09-01T02:10:07.356Z,94792.65
2022-09-01T02:12:33.758Z,94794.25
2022-09-01T02:15:00.138Z,94795.55
2022-09-01T02:17:26.521Z,94790.19
2022-09-01T02:19:52.904Z,94793.24
2022-09-01T02:22:19.351Z,94793.72
2022-09-01T02:24:45.728Z,94798.56
2022-09-01T02:27:12.108Z,94796.45
2022-09-01T02:29:41.003Z,94793.40
2022-09-01T02:32:04.909Z,94794.69
2022-09-01T02:34:31.285Z,94789.64
2022-09-01T02:36:57.660Z,94794.81
2022-09-01T02:39:24.046Z,94793.59
2022-09-01T02:41:50.439Z,94789.71
2022-09-01T02:44:16.818Z,94782.70
2022-09-01T02:49:25.465Z,94785.64
2022-09-01T02:51:51.888Z,94781.77
2022-09-01T02:54:18.256Z,94772.37
2022-09-01T02:56:44.643Z,94773.31
2022-09-01T02:59:11.021Z,94770.73
2022-09-01T03:01:37.453Z,94772.84
2022-09-01T03:04:03.796Z,94770.41
2022-09-01T03:06:30.175Z,94775.23
2022-09-01T03:08:56.582Z,94775.23
2022-09-01T03:11:22.963Z,94773.94
2022-09-01T03:13:49.344Z,94774.06
2022-09-01T03:16:15.775Z,94770.69
2022-09-01T03:18:42.105Z,94769.05
2022-09-01T03:21:08.566Z,94771.75
2022-09-01T03:23:34.868Z,94772.10
2022-09-01T03:26:01.275Z,94776.13
2022-09-01T03:28:27.636Z,94771.09
2022-09-01T03:30:54.021Z,94778.02
2022-09-01T03:33:20.396Z,94773.32
2022-09-01T03:35:46.855Z,94777.20
2022-09-01T03:38:13.262Z,94776.66
2022-09-01T03:40:39.716Z,94770.55
2022-09-01T03:43:06.054Z,94774.41
2022-09-01T03:45:32.511Z,94774.41
2022-09-01T03:47:58.816Z,94772.30
2022-09-01T03:50:25.194Z,94776.18
2022-09-01T03:52:51.581Z,94777.95
2022-09-01T03:55:17.955Z,94777.00
2022-09-01T03:57:44.345Z,94779.74
2022-09-01T04:00:10.780Z,94783.81
2022-09-01T04:02:37.276Z,94786.05
2022-09-01T04:05:08.381Z,94782.64
2022-09-01T04:07:29.928Z,94780.87
2022-09-01T04:09:56.314Z,94781.35
2022-09-01T04:12:22.698Z,94778.30
2022-09-01T04:14:49.079Z,94777.35
2022-09-01T04:17:15.537Z,94754.50
2022-09-01T04:19:41.986Z,94778.48
2022-09-01T04:22:08.404Z,94783.81
2022-09-01T04:24:34.783Z,94783.66
2022-09-01T04:27:01.165Z,94781.15
2022-09-01T04:29:27.768Z,94784.16
2022-09-01T04:31:53.949Z,94784.83
2022-09-01T04:34:20.308Z,94777.47
2022-09-01T04:36:46.686Z,94778.30
2022-09-01T04:39:13.084Z,94780.53
2022-09-01T04:41:39.449Z,94783.81
2022-09-01T04:44:05.843Z,94783.53
2022-09-01T04:46:32.225Z,94783.53
2022-09-01T04:48:58.614Z,94786.25
2022-09-01T04:51:24.988Z,94780.76
2022-09-01T04:53:51.371Z,94789.17
2022-09-01T04:56:17.799Z,94782.58
2022-09-01T04:58:44.145Z,94781.02
2022-09-01T05:01:10.527Z,94779.73
2022-09-01T05:03:36.902Z,94779.58
2022-09-01T05:06:03.284Z,94775.03
2022-09-01T05:08:29.740Z,94781.02
2022-09-01T05:10:56.086Z,94783.45
2022-09-01T05:13:22.464Z,94780.87
2022-09-01T05:15:48.846Z,94778.48
2022-09-01T05:18:15.223Z,94773.66
2022-09-01T05:20:41.601Z,94775.14
2022-09-01T05:23:07.990Z,94776.31
2022-09-01T05:25:34.364Z,94776.16
2022-09-01T05:28:00.752Z,94777.92
2022-09-01T05:30:27.141Z,94779.98
2022-09-01T05:32:53.534Z,94777.05
2022-09-01T05:35:19.970Z,94781.03
2022-09-01T05:37:46.355Z,94781.98
2022-09-01T05:40:12.774Z,94785.85
2022-09-01T05:42:39.119Z,94784.62
2022-09-01T05:45:05.501Z,94785.77
2022-09-01T05:47:31.903Z,94779.77
2022-09-01T05:49:58.287Z,94780.13
2022-09-01T05:52:24.722Z,94782.23
2022-09-01T05:54:51.109Z,94773.37
2022-09-01T05:57:33.820Z,94773.73
2022-09-01T05:59:43.890Z,94774.08
2022-09-01T06:02:10.409Z,94778.90
2022-09-01T06:04:36.680Z,94775.56
2022-09-01T06:07:07.741Z,94773.03
2022-09-01T06:09:29.631Z,94771.73
2022-09-01T06:11:56.039Z,94767.55
2022-09-01T06:14:22.499Z,94772.09
2022-09-01T06:16:48.883Z,94764.20
2022-09-01T06:19:15.263Z,94742.14
2022-09-01T06:21:41.643Z,94763.03
2022-09-01T06:24:08.032Z,94765.53
2022-09-01T06:26:34.427Z,94770.20
2022-09-01T06:29:00.828Z,94766.03
2022-09-01T06:31:27.244Z,94769.76
2022-09-01T06:33:53.589Z,94767.23
2022-09-01T06:36:19.981Z,94768.47
2022-09-01T06:38:46.365Z,94770.68
2022-09-01T06:41:12.757Z,94774.56
2022-09-01T06:43:39.142Z,94769.00
2022-09-01T06:46:05.559Z,94760.62
2022-09-01T06:48:31.941Z,94762.19
2022-09-01T06:53:32.549Z,94758.09
2022-09-01T06:55:51.114Z,94756.14
2022-09-01T06:58:17.538Z,94756.05
2022-09-01T07:00:43.912Z,94753.55
2022-09-01T07:03:10.297Z,94754.38
2022-09-01T07:08:06.219Z,94758.56
2022-09-01T07:10:29.496Z,94763.10
2022-09-01T07:13:11.127Z,94761.59
2022-09-01T07:17:48.646Z,94761.18
2022-09-01T07:20:30.415Z,94764.75
2022-09-01T07:25:12.252Z,94759.10
2022-09-01T07:27:40.655Z,94752.38
2022-09-01T07:30:00.649Z,94753.14
2022-09-01T07:32:43.939Z,94746.29
2022-09-01T07:34:54.057Z,94750.39
2022-09-01T07:39:50.255Z,94747.30
2022-09-01T07:44:39.068Z,94751.53
2022-09-01T07:47:52.153Z,94749.09
2022-09-01T07:49:49.198Z,94744.65
2022-09-01T07:51:59.736Z,94743.77
2022-09-01T07:54:24.643Z,94729.01
2022-09-01T07:56:51.040Z,94748.70
2022-09-01T07:59:17.427Z,94747.56
2022-09-01T08:01:43.933Z,94719.36
2022-09-01T08:04:10.226Z,94744.78
2022-09-01T08:06:38.455Z,94745.38
2022-09-01T08:09:03.174Z,94737.90
2022-09-01T08:13:55.980Z,94739.15
2022-09-01T08:16:22.421Z,94753.26
2022-09-01T08:18:49.557Z,94750.20
2022-09-01T08:21:15.137Z,94738.48
2022-09-01T08:23:41.538Z,94738.22
2022-09-01T08:26:07.932Z,94736.45
2022-09-01T08:28:34.320Z,94732.45
2022-09-01T08:31:00.811Z,94733.03
2022-09-01T08:33:27.083Z,94732.37
2022-09-01T08:35:54.161Z,94734.73
2022-09-01T08:38:20.043Z,94730.09
2022-09-01T08:40:46.341Z,94727.52
2022-09-01T08:43:15.473Z,94729.08
2022-09-01T08:45:39.097Z,94722.50
2022-09-01T08:48:37.147Z,94724.70
2022-09-01T08:50:31.868Z,94719.37
2022-09-01T08:53:09.138Z,94726.44
2022-09-01T08:55:24.640Z,94720.20
2022-09-01T08:57:51.796Z,94723.72
2022-09-01T09:00:17.417Z,94716.98
2022-09-01T09:02:43.842Z,94717.80
2022-09-01T09:05:17.295Z,94712.44
2022-09-01T09:07:36.588Z,94711.49
2022-09-01T09:10:02.969Z,94704.69
2022-09-01T09:12:29.363Z,94708.19
2022-09-01T09:14:55.746Z,94702.20
2022-09-01T09:17:22.123Z,94702.29
2022-09-01T09:19:48.509Z,94696.49
2022-09-01T09:22:14.903Z,94697.03
2022-09-01T09:24:41.296Z,94698.20
2022-09-01T09:27:09.733Z,94697.53
2022-09-01T09:29:34.085Z,94696.30
2022-09-01T09:32:00.496Z,94692.74
2022-09-01T09:34:26.886Z,94695.86
2022-09-01T09:36:55.444Z,94691.52
2022-09-01T09:39:19.644Z,94693.34
2022-09-01T09:41:46.079Z,94686.59
2022-09-01T09:44:12.438Z,94681.13
2022-09-01T09:46:38.928Z,94680.66
2022-09-01T09:49:05.249Z,94677.72
2022-09-01T09:51:31.640Z,94681.03
2022-09-01T09:53:58.021Z,94679.10
2022-09-01T09:56:24.411Z,94674.22
2022-09-01T09:58:50.799Z,94673.75
2022-09-01T10:01:17.793Z,94674.05
2022-09-01T10:03:43.617Z,94670.27
2022-09-01T10:06:09.998Z,94669.80
2022-09-01T10:08:36.396Z,94671.75
2022-09-01T10:11:02.792Z,94675.08
2022-09-01T10:13:29.189Z,94669.95
2022-09-01T10:15:55.580Z,94661.38
2022-09-01T10:18:28.427Z,94658.49
2022-09-01T10:20:48.367Z,94653.44
2022-09-01T10:23:15.284Z,94653.58
2022-09-01T10:25:41.186Z,94656.45
2022-09-01T10:28:07.603Z,94650.95
2022-09-01T10:30:34.129Z,94655.38
2022-09-01T10:33:11.064Z,94647.40
2022-09-01T10:35:27.035Z,94652.56
2022-09-01T10:37:53.438Z,94644.47
2022-09-01T10:40:20.957Z,94646.14
2022-09-01T10:42:46.325Z,94640.84
2022-09-01T10:45:12.724Z,94643.77
2022-09-01T10:47:39.180Z,94647.05
2022-09-01T10:50:10.299Z,94647.53
2022-09-01T10:52:31.932Z,94642.01
2022-09-01T10:54:58.323Z,94639.08
2022-09-01T10:57:27.028Z,94632.55
2022-09-01T10:59:56.474Z,94631.10
2022-09-01T11:04:43.983Z,94631.20
2022-09-01T11:07:12.894Z,94623.34
2022-09-01T11:09:39.128Z,94619.17
2022-09-01T11:12:05.544Z,94617.34
2022-09-01T11:14:31.928Z,94615.16
2022-09-01T11:16:58.418Z,94617.12
2022-09-01T11:19:24.775Z,94620.95
2022-09-01T11:21:51.172Z,94612.43
2022-09-01T11:24:17.709Z,94612.72
2022-09-01T11:26:44.071Z,94605.30
2022-09-01T11:29:10.451Z,94599.59
2022-09-01T11:31:36.888Z,94599.26
2022-09-01T11:34:03.258Z,94595.25
2022-09-01T11:36:29.667Z,94597.65
2022-09-01T11:38:56.986Z,94594.42
2022-09-01T11:41:22.528Z,94592.19
2022-09-01T11:43:48.925Z,94588.38
2022-09-01T11:46:15.413Z,94584.91
2022-09-01T11:48:41.729Z,94587.62
2022-09-01T11:51:08.246Z,94581.86
2022-09-01T11:53:34.635Z,94574.08
2022-09-01T11:56:01.036Z,94561.63
2022-09-01T11:58:27.424Z,94554.21
2022-09-01T12:00:53.856Z,94551.09
2022-09-01T12:03:20.750Z,94547.93
2022-09-01T12:05:46.647Z,94552.47
2022-09-01T12:08:13.016Z,94548.98
2022-09-01T12:10:39.420Z,94545.77
2022-09-01T12:13:05.800Z,94551.63
2022-09-01T12:15:32.187Z,94550.81
2022-09-01T12:17:58.581Z,94547.83
2022-09-01T12:20:28.914Z,94546.45
2022-09-01T12:22:51.378Z,94552.10
2022-09-01T12:25:17.823Z,94548.05
2022-09-01T12:27:44.263Z,94550.94
2022-09-01T12:30:10.648Z,94550.28
2022-09-01T12:32:37.063Z,94549.65
2022-09-01T12:35:11.069Z,94552.52
2022-09-01T12:37:29.866Z,94548.05
2022-09-01T12:39:56.381Z,94548.59
2022-09-01T12:42:23.128Z,94547.35
2022-09-01T12:44:50.569Z,94544.37
2022-09-01T12:47:15.541Z,94543.16
2022-09-01T12:49:48.033Z,94540.58
2022-09-01T12:52:08.327Z,94539.28
2022-09-01T12:54:34.740Z,94541.23
2022-09-01T12:57:01.134Z,94532.37
2022-09-01T12:59:35.969Z,94535.24
2022-09-01T13:01:54.198Z,94535.06
2022-09-01T13:04:20.339Z,94526.38
2022-09-01T13:06:49.774Z,94528.20
2022-09-01T13:09:13.236Z,94524.23
2022-09-01T13:14:06.065Z,94524.66
2022-09-01T13:16:32.479Z,94527.06
2022-09-01T13:19:19.794Z,94526.43
2022-09-01T13:21:25.260Z,94522.19
2022-09-01T13:23:51.667Z,94516.96
2022-09-01T13:26:18.068Z,94515.85
2022-09-01T13:28:44.459Z,94515.91
2022-09-01T13:36:42.336Z,94530.02
2022-09-01T13:38:30.011Z,94526.95
2022-09-01T13:40:57.074Z,94535.19
2022-09-01T13:43:22.968Z,94538.83
2022-09-01T13:45:49.228Z,94541.05
2022-09-01T13:48:16.048Z,94539.41
2022-09-01T13:53:08.381Z,94537.19
2022-09-01T13:55:34.770Z,94538.41
2022-09-01T13:58:01.159Z,94534.84
2022-09-01T14:00:27.663Z,94538.88
2022-09-01T14:02:54.091Z,94536.13
2022-09-01T14:05:20.487Z,94538.13
2022-09-01T14:07:46.866Z,94543.66
2022-09-01T14:10:13.389Z,94544.16
2022-09-01T14:12:39.791Z,94540.17
2022-09-01T14:15:16.681Z,94545.98
2022-09-01T14:17:32.793Z,94546.55
2022-09-01T14:19:59.199Z,94547.24
2022-09-01T14:22:25.586Z,94542.67
2022-09-01T14:24:52.102Z,94546.70
2022-09-01T14:27:18.508Z,94543.08
2022-09-01T14:32:10.250Z,94543.42
2022-09-01T14:34:36.638Z,94547.08
2022-09-01T14:37:03.136Z,94547.59
2022-09-01T14:39:29.530Z,94540.23
2022-09-01T14:41:58.391Z,94539.20
2022-09-01T14:44:24.790Z,94541.05
2022-09-01T14:46:51.275Z,94541.67
2022-09-01T14:49:22.091Z,94546.30
2022-09-01T14:54:10.447Z,94538.65
2022-09-01T14:56:36.837Z,94533.64
2022-09-01T14:59:03.222Z,94536.42
2022-09-01T15:01:36.949Z,94538.96
2022-09-01T15:03:56.035Z,94532.84
2022-09-01T15:06:22.406Z,94534.84
2022-09-01T15:08:48.789Z,94531.44
2022-09-01T15:11:15.216Z,94534.71
2022-09-01T15:13:41.589Z,94531.86
2022-09-01T15:16:08.056Z,94544.37
2022-09-01T15:18:34.365Z,94546.06
2022-09-01T15:21:00.782Z,94550.17
2022-09-01T15:23:27.165Z,94544.66
2022-09-01T15:25:53.579Z,94544.92
2022-09-01T15:28:19.989Z,94534.55
2022-09-01T15:30:46.616Z,94539.87
2022-09-01T15:33:15.568Z,94529.91
2022-09-01T15:35:39.189Z,94529.44
2022-09-01T15:38:05.605Z,94535.08
2022-09-01T15:40:32.067Z,94483.05
2022-09-01T15:42:58.394Z,94548.69
2022-09-01T15:45:24.766Z,94551.87
2022-09-01T15:47:51.345Z,94557.92
2022-09-01T15:50:21.837Z,94562.11
2022-09-01T15:52:44.109Z,94566.00
2022-09-01T15:55:10.490Z,94568.11
2022-09-01T15:57:36.869Z,94565.71
2022-09-01T16:00:03.254Z,94573.84
2022-09-01T16:02:29.688Z,94577.05
2022-09-01T16:04:56.021Z,94584.81
2022-09-01T16:07:22.401Z,94591.59
2022-09-01T16:09:48.793Z,94591.59
2022-09-01T16:12:15.168Z,94579.77
2022-09-01T16:14:41.558Z,94582.16
2022-09-01T16:17:07.959Z,94589.50
2022-09-01T16:19:34.338Z,94588.91
2022-09-01T16:22:00.865Z,94586.20
2022-09-01T16:24:27.184Z,94585.25
2022-09-01T16:26:53.584Z,94584.15
2022-09-01T16:29:19.978Z,94583.73
2022-09-01T16:31:46.441Z,94583.73
2022-09-01T16:34:12.811Z,94590.55
2022-09-01T16:36:39.186Z,94584.62
2022-09-01T16:39:05.595Z,94596.16
2022-09-01T16:41:31.973Z,94589.28
2022-09-01T16:43:58.359Z,94612.51
2022-09-01T16:46:24.795Z,94597.38
2022-09-01T16:48:51.130Z,94610.91
2022-09-01T16:51:17.501Z,94608.12
2022-09-01T16:53:43.922Z,94599.40
2022-09-01T16:56:10.450Z,94599.59
2022-09-01T16:58:36.830Z,94601.03
2022-09-01T17:01:03.311Z,94604.16
2022-09-01T17:03:34.181Z,94602.17
2022-09-01T17:05:56.081Z,94602.98
2022-09-01T17:08:22.466Z,94600.28
2022-09-01T17:10:48.844Z,94604.16
2022-09-01T17:13:15.234Z,94599.80
2022-09-01T17:15:41.660Z,94595.30
2022-09-01T17:18:08.010Z,94596.41
2022-09-01T17:20:34.394Z,94602.52
2022-09-01T17:23:00.842Z,94606.93
2022-09-01T17:25:27.216Z,94605.45
2022-09-01T17:27:53.638Z,94614.34
2022-09-01T17:30:20.008Z,94614.21
2022-09-01T17:32:46.403Z,94610.17
2022-09-01T17:35:12.780Z,94613.86
2022-09-01T17:37:39.169Z,94607.69
2022-09-01T17:40:05.614Z,94614.84
2022-09-01T17:42:31.930Z,94616.64
2022-09-01T17:44:58.308Z,94621.14
2022-09-01T17:47:24.739Z,94619.66
2022-09-01T17:49:51.164Z,94624.08
2022-09-01T17:52:17.574Z,94625.66
2022-09-01T17:54:43.950Z,94623.67
2022-09-01T17:57:11.147Z,94624.67
2022-09-01T17:59:36.946Z,94628.27
2022-09-01T18:02:03.413Z,94626.66
2022-09-01T18:04:29.705Z,94622.09
2022-09-01T18:06:56.097Z,94621.97
2022-09-01T18:09:22.463Z,94630.25
2022-09-01T18:11:48.864Z,94626.19
2022-09-01T18:14:15.232Z,94623.10
2022-09-01T18:16:41.729Z,94629.09
2022-09-01T18:19:08.139Z,94624.73
2022-09-01T18:21:34.517Z,94633.66
2022-09-01T18:24:00.923Z,94630.25
2022-09-01T18:26:27.314Z,94632.49
2022-09-01T18:28:53.765Z,94635.73
2022-09-01T18:31:20.209Z,94634.45
2022-09-01T18:33:46.521Z,94637.38
2022-09-01T18:36:12.943Z,94636.09
2022-09-01T18:38:39.332Z,94632.49
2022-09-01T18:41:05.717Z,94637.85
2022-09-01T18:43:32.105Z,94632.68
2022-09-01T18:45:58.573Z,94631.86
2022-09-01T18:48:24.986Z,94629.28
2022-09-01T18:50:51.292Z,94634.67
2022-09-01T18:53:17.725Z,94635.14
2022-09-01T18:55:44.051Z,94638.55
2022-09-01T18:58:10.431Z,94639.02
2022-09-01T19:00:36.913Z,94634.80
2022-09-01T19:03:03.439Z,94641.95
2022-09-01T19:05:33.223Z,94642.27
2022-09-01T19:07:56.115Z,94643.24
2022-09-01T19:10:22.487Z,94649.48
2022-09-01T19:12:48.874Z,94643.72
2022-09-01T19:15:15.252Z,94644.78
2022-09-01T19:17:41.639Z,94644.19
2022-09-01T19:20:08.027Z,94645.48
2022-09-01T19:22:34.438Z,94649.36
2022-09-01T19:25:00.819Z,94650.66
2022-09-01T19:27:27.200Z,94646.42
2022-09-01T19:29:53.578Z,94650.49
2022-09-01T19:32:19.962Z,94652.29
2022-09-01T19:34:46.343Z,94657.78
2022-09-01T19:37:12.734Z,94659.55
2022-09-01T19:39:39.117Z,94661.94
2022-09-01T19:42:05.498Z,94661.34
2022-09-01T19:44:31.998Z,94664.23
2022-09-01T19:46:58.375Z,94661.34
2022-09-01T19:49:24.761Z,94670.86
2022-09-01T19:51:51.132Z,94669.09
2022-09-01T19:54:17.628Z,94678.14
2022-09-01T19:56:49.430Z,94679.28
2022-09-01T19:59:10.428Z,94678.93
2022-09-01T20:01:36.866Z,94681.05
2022-09-01T20:04:03.183Z,94669.88
2022-09-01T20:06:29.574Z,94669.41
2022-09-01T20:08:55.973Z,94673.77
2022-09-01T20:11:23.481Z,94675.05
2022-09-01T20:13:49.869Z,94670.58
2022-09-01T20:16:16.340Z,94670.23
2022-09-01T20:18:42.630Z,94672.47
2022-09-01T20:21:09.010Z,94672.81
2022-09-01T20:23:35.395Z,94670.23
2022-09-01T20:26:01.782Z,94668.12
2022-09-01T20:28:28.190Z,94666.83
2022-09-01T20:30:54.605Z,94666.83
2022-09-01T20:33:21.159Z,94665.53
2022-09-01T20:35:47.472Z,94671.05
2022-09-01T20:38:13.868Z,94669.41
2022-09-01T20:40:40.325Z,94669.76
2022-09-01T20:43:06.656Z,94666.35
2022-09-01T20:45:33.013Z,94669.41
2022-09-01T20:47:59.476Z,94671.05
2022-09-01T20:50:25.903Z,94664.59
2022-09-01T20:52:53.542Z,94667.64
2022-09-01T20:55:18.746Z,94662.12
2022-09-01T20:57:45.128Z,94661.18
2022-09-01T21:00:11.533Z,94662.47
2022-09-01T21:02:37.949Z,94658.25
2022-09-01T21:05:04.263Z,94663.77
2022-09-01T21:07:31.374Z,94653.90
2022-09-01T21:09:57.085Z,94660.36
2022-09-01T21:12:23.470Z,94668.12
2022-09-01T21:14:50.136Z,94661.18
2022-09-01T21:17:17.422Z,94665.53
2022-09-01T21:19:42.863Z,94664.59
2022-09-01T21:22:09.251Z,94668.47
2022-09-01T21:24:35.632Z,94673.28
2022-09-01T21:27:02.019Z,94681.39
2022-09-01T21:29:28.435Z,94680.22
2022-09-01T21:31:57.649Z,94683.98
2022-09-01T21:34:24.064Z,94685.27
2022-09-01T21:36:50.433Z,94686.22
2022-09-01T21:39:16.847Z,94687.50
2022-09-01T21:41:43.221Z,94692.68
2022-09-01T21:44:09.690Z,94693.66
2022-09-01T21:46:36.075Z,94693.50
2022-09-01T21:49:02.462Z,94694.45
2022-09-01T21:51:28.879Z,94701.25
2022-09-01T21:53:55.263Z,94695.73
2022-09-01T21:56:25.898Z,94700.91
2022-09-01T21:58:49.901Z,94699.61
2022-09-01T22:01:14.579Z,94698.83
2022-09-01T22:03:40.857Z,94703.49
2022-09-01T22:06:07.262Z,94691.55
2022-09-01T22:08:33.708Z,94693.31
2022-09-01T22:11:00.087Z,94691.55
2022-09-01T22:13:26.504Z,94685.20
2022-09-01T22:15:52.916Z,94686.84
2022-09-01T22:18:19.313Z,94686.38
2022-09-01T22:20:45.690Z,94686.50
2022-09-01T22:23:12.080Z,94682.97
2022-09-01T22:25:38.456Z,94681.67
2022-09-01T22:28:04.845Z,94676.50
2022-09-01T22:30:31.256Z,94673.92
2022-09-01T22:32:57.607Z,94675.20
2022-09-01T22:35:24.075Z,94671.46
2022-09-01T22:37:50.465Z,94668.40
2022-09-01T22:40:16.889Z,94672.28
2022-09-01T22:42:43.251Z,94676.50
2022-09-01T22:45:09.632Z,94677.32
2022-09-01T22:47:37.125Z,94666.77
2022-09-01T22:50:02.438Z,94664.87
2022-09-01T22:52:28.831Z,94659.35
2022-09-01T22:54:55.210Z,94657.46
2022-09-01T22:57:21.588Z,94661.34
2022-09-01T22:59:47.975Z,94663.42
2022-09-01T23:02:14.387Z,94663.10
2022-09-01T23:04:40.738Z,94662.62
2022-09-01T23:07:07.134Z,94660.52
2022-09-01T23:09:33.502Z,94660.64
2022-09-01T23:11:59.884Z,94655.82
2022-09-01T23:14:26.266Z,94658.06
2022-09-01T23:16:52.804Z,94646.42
2022-09-01T23:19:19.163Z,94647.72
2022-09-01T23:21:45.603Z,94642.89
2022-09-01T23:24:11.990Z,94646.90
2022-09-01T23:26:38.383Z,94645.61
2022-09-01T23:29:04.793Z,94642.20
2022-09-01T23:31:31.222Z,94642.89
2022-09-01T23:33:57.529Z,94633.16
2022-09-01T23:36:23.914Z,94630.57
2022-09-01T23:38:50.294Z,94630.09
2022-09-01T23:41:16.681Z,94628.48
2022-09-01T23:43:43.059Z,94633.66
2022-09-01T23:46:09.514Z,94634.13
2022-09-01T23:48:35.822Z,94630.73
2022-09-01T23:51:02.235Z,94633.31
2022-09-01T23:53:28.616Z,94642.36
2022-09-01T23:55:55.009Z,94633.78
2022-09-01T23:58:21.394Z,94630.38
